首页
METAR-TAF:

METAR-TAF

机场 :

伊魁特, 努那武特, 加拿大

伊魁特機場

纬度: 63-45N, 经度: 068-33W, 海拔: 34米

当前天气观测

该预报发布于43分钟前的23:00 UTC
风速2节,风向多变
温度 -32°C
湿度 67%
气压 1011 hPa
能見度: 24.1公里
多云层高于3300英尺
冰针

METAR: CYFB 182300Z VRB02KT 15SM IC BKN033 M32/M36 A2984 RMK SC7 SLP112

时间: 18:43 (23:43 UTC)

预报

该预报发布于6小时和5分钟前的17:38 UTC
预报有效从18日的 18点(UTC)到 19日的 18点(UTC)
风速3节,风向多变
能見度: 10公里
散云层高于2500英尺
冰针
短暂存在
从 18日的 18点(UTC)到 18日的 21点(UTC)
多云层高于2000英尺
成为
从 18日的 19点(UTC)到 18日的 21点(UTC)
风速10节,风向西北
从 19日的 0900点(UTC)
风速10节,风向西北
能見度: 10公里
散云层高于4000英尺
短暂存在
从 19日的 09点(UTC)到 19日的 18点(UTC)
多云层高于3000英尺

TAF: CYFB 181738Z 1818/1918 VRB03KT P6SM IC SCT025 TEMPO 1818/1821 BKN020 BECMG 1819/1821 32010KT FM190900 32010KT P6SM SCT040 TEMPO 1909/1918 BKN030 RMK NXT FCST BY 190000Z

超过4000个机场的气象观测和天气预报(METAR&TAF报告)。

可查询的气象台以黄色和红色小点在地图上表示。

将鼠标移到小点上方,可查看气象台名称。

然后点击查看天气观测和预报。

如需切换地图:点击带黑十字的绿色按钮放大地图;点击带横线的绿色按钮缩小地图;或者点击绿色箭头查看邻近地区的地图。


METAR-TAF: